sensor_id;sensor_type;location;lat;lon;timestamp;temperature;humidity
25906;DHT22;13713;52.552;13.204;2022-07-23T00:00:14;26.00;55.30
25906;DHT22;13713;52.552;13.204;2022-07-23T00:02:39;25.90;55.30
25906;DHT22;13713;52.552;13.204;2022-07-23T00:05:05;25.90;55.30
25906;DHT22;13713;52.552;13.204;2022-07-23T00:07:31;26.00;55.30
25906;DHT22;13713;52.552;13.204;2022-07-23T00:09:57;25.90;55.20
25906;DHT22;13713;52.552;13.204;2022-07-23T00:12:23;25.90;55.30
25906;DHT22;13713;52.552;13.204;2022-07-23T00:14:48;25.90;55.20
25906;DHT22;13713;52.552;13.204;2022-07-23T00:17:14;25.90;55.20
25906;DHT22;13713;52.552;13.204;2022-07-23T00:19:39;25.90;55.30
25906;DHT22;13713;52.552;13.204;2022-07-23T00:22:05;25.90;55.20
25906;DHT22;13713;52.552;13.204;2022-07-23T00:24:31;25.90;55.20
25906;DHT22;13713;52.552;13.204;2022-07-23T00:26:56;25.90;55.20
25906;DHT22;13713;52.552;13.204;2022-07-23T00:29:22;25.90;55.20
25906;DHT22;13713;52.552;13.204;2022-07-23T00:31:48;25.90;55.20
25906;DHT22;13713;52.552;13.204;2022-07-23T00:34:13;25.90;55.20
25906;DHT22;13713;52.552;13.204;2022-07-23T00:36:39;25.90;55.20
25906;DHT22;13713;52.552;13.204;2022-07-23T00:39:05;25.90;55.20
25906;DHT22;13713;52.552;13.204;2022-07-23T00:41:30;25.90;55.20
25906;DHT22;13713;52.552;13.204;2022-07-23T00:46:47;25.90;55.20
25906;DHT22;13713;52.552;13.204;2022-07-23T00:49:13;25.90;55.20
25906;DHT22;13713;52.552;13.204;2022-07-23T00:51:40;25.90;55.20
25906;DHT22;13713;52.552;13.204;2022-07-23T00:54:05;25.90;55.40
25906;DHT22;13713;52.552;13.204;2022-07-23T00:56:32;25.90;55.20
25906;DHT22;13713;52.552;13.204;2022-07-23T00:59:00;25.90;55.20
25906;DHT22;13713;52.552;13.204;2022-07-23T01:01:26;25.90;55.10
25906;DHT22;13713;52.552;13.204;2022-07-23T01:03:51;25.90;55.20
25906;DHT22;13713;52.552;13.204;2022-07-23T01:06:17;25.90;55.10
25906;DHT22;13713;52.552;13.204;2022-07-23T01:08:43;25.90;55.20
25906;DHT22;13713;52.552;13.204;2022-07-23T01:11:08;25.90;55.10
25906;DHT22;13713;52.552;13.204;2022-07-23T01:13:35;25.90;55.10
25906;DHT22;13713;52.552;13.204;2022-07-23T01:16:00;25.80;55.10
25906;DHT22;13713;52.552;13.204;2022-07-23T01:18:26;25.80;55.00
25906;DHT22;13713;52.552;13.204;2022-07-23T01:20:52;25.80;55.00
25906;DHT22;13713;52.552;13.204;2022-07-23T01:23:17;25.90;55.10
25906;DHT22;13713;52.552;13.204;2022-07-23T01:25:51;25.90;55.10
25906;DHT22;13713;52.552;13.204;2022-07-23T01:28:17;25.90;55.10
25906;DHT22;13713;52.552;13.204;2022-07-23T01:30:45;25.80;55.00
25906;DHT22;13713;52.552;13.204;2022-07-23T01:33:11;25.80;55.00
25906;DHT22;13713;52.552;13.204;2022-07-23T01:35:36;25.80;55.00
25906;DHT22;13713;52.552;13.204;2022-07-23T01:38:05;25.80;55.00
25906;DHT22;13713;52.552;13.204;2022-07-23T01:40:32;25.80;55.00
25906;DHT22;13713;52.552;13.204;2022-07-23T01:42:59;25.80;55.00
25906;DHT22;13713;52.552;13.204;2022-07-23T01:45:25;25.80;55.00
25906;DHT22;13713;52.552;13.204;2022-07-23T01:47:51;25.80;55.00
25906;DHT22;13713;52.552;13.204;2022-07-23T01:50:17;25.80;55.00
25906;DHT22;13713;52.552;13.204;2022-07-23T01:53:01;25.80;55.00
25906;DHT22;13713;52.552;13.204;2022-07-23T01:55:27;25.80;55.00
25906;DHT22;13713;52.552;13.204;2022-07-23T01:57:53;25.80;55.00
25906;DHT22;13713;52.552;13.204;2022-07-23T02:00:21;25.80;54.90
25906;DHT22;13713;52.552;13.204;2022-07-23T02:02:50;25.80;55.00
25906;DHT22;13713;52.552;13.204;2022-07-23T02:05:15;25.80;54.90
25906;DHT22;13713;52.552;13.204;2022-07-23T02:07:41;25.80;54.90
25906;DHT22;13713;52.552;13.204;2022-07-23T02:10:08;25.80;54.90
25906;DHT22;13713;52.552;13.204;2022-07-23T02:12:36;25.80;54.90
25906;DHT22;13713;52.552;13.204;2022-07-23T02:15:02;25.80;54.90
25906;DHT22;13713;52.552;13.204;2022-07-23T02:17:28;25.80;54.80
25906;DHT22;13713;52.552;13.204;2022-07-23T02:19:53;25.80;54.80
25906;DHT22;13713;52.552;13.204;2022-07-23T02:22:21;25.80;54.90
25906;DHT22;13713;52.552;13.204;2022-07-23T02:24:48;25.80;54.90
25906;DHT22;13713;52.552;13.204;2022-07-23T02:27:14;25.80;54.90
25906;DHT22;13713;52.552;13.204;2022-07-23T02:29:40;25.80;54.80
25906;DHT22;13713;52.552;13.204;2022-07-23T02:32:05;25.80;54.80
25906;DHT22;13713;52.552;13.204;2022-07-23T02:34:31;25.80;54.80
25906;DHT22;13713;52.552;13.204;2022-07-23T02:36:57;25.80;54.80
25906;DHT22;13713;52.552;13.204;2022-07-23T02:39:24;25.80;54.90
25906;DHT22;13713;52.552;13.204;2022-07-23T02:41:49;25.80;54.80
25906;DHT22;13713;52.552;13.204;2022-07-23T02:44:15;25.80;54.80
25906;DHT22;13713;52.552;13.204;2022-07-23T02:46:44;25.80;54.80
25906;DHT22;13713;52.552;13.204;2022-07-23T02:49:09;25.80;54.80
25906;DHT22;13713;52.552;13.204;2022-07-23T02:51:35;25.80;54.80
25906;DHT22;13713;52.552;13.204;2022-07-23T02:54:04;25.80;54.80
25906;DHT22;13713;52.552;13.204;2022-07-23T02:56:30;25.80;54.80
25906;DHT22;13713;52.552;13.204;2022-07-23T02:58:56;25.80;54.80
25906;DHT22;13713;52.552;13.204;2022-07-23T03:01:22;25.80;54.80
25906;DHT22;13713;52.552;13.204;2022-07-23T03:03:48;25.70;54.80
25906;DHT22;13713;52.552;13.204;2022-07-23T03:06:13;25.70;54.70
25906;DHT22;13713;52.552;13.204;2022-07-23T03:08:39;25.70;54.70
25906;DHT22;13713;52.552;13.204;2022-07-23T03:11:05;25.70;54.70
25906;DHT22;13713;52.552;13.204;2022-07-23T03:13:38;25.70;54.70
25906;DHT22;13713;52.552;13.204;2022-07-23T03:16:04;25.70;54.70
25906;DHT22;13713;52.552;13.204;2022-07-23T03:18:30;25.70;54.70
25906;DHT22;13713;52.552;13.204;2022-07-23T03:20:56;25.70;54.70
25906;DHT22;13713;52.552;13.204;2022-07-23T03:23:22;25.70;54.70
25906;DHT22;13713;52.552;13.204;2022-07-23T03:25:48;25.70;54.70
25906;DHT22;13713;52.552;13.204;2022-07-23T03:28:17;25.70;54.70
25906;DHT22;13713;52.552;13.204;2022-07-23T03:30:46;25.70;54.70
25906;DHT22;13713;52.552;13.204;2022-07-23T03:33:13;25.70;54.60
25906;DHT22;13713;52.552;13.204;2022-07-23T03:35:39;25.70;54.60
25906;DHT22;13713;52.552;13.204;2022-07-23T03:38:16;25.70;54.60
25906;DHT22;13713;52.552;13.204;2022-07-23T03:40:42;25.70;54.60
25906;DHT22;13713;52.552;13.204;2022-07-23T03:43:07;25.70;54.70
25906;DHT22;13713;52.552;13.204;2022-07-23T03:45:33;25.70;54.60
25906;DHT22;13713;52.552;13.204;2022-07-23T03:47:59;25.60;54.60
25906;DHT22;13713;52.552;13.204;2022-07-23T03:50:25;25.70;54.60
25906;DHT22;13713;52.552;13.204;2022-07-23T03:52:51;25.70;54.60
25906;DHT22;13713;52.552;13.204;2022-07-23T03:55:17;25.70;54.60
25906;DHT22;13713;52.552;13.204;2022-07-23T03:57:43;25.70;54.60
25906;DHT22;13713;52.552;13.204;2022-07-23T04:00:10;25.70;54.60
25906;DHT22;13713;52.552;13.204;2022-07-23T04:02:44;25.70;54.60
25906;DHT22;13713;52.552;13.204;2022-07-23T04:05:11;25.70;54.60
25906;DHT22;13713;52.552;13.204;2022-07-23T04:07:37;25.60;54.50
25906;DHT22;13713;52.552;13.204;2022-07-23T04:10:03;25.70;54.50
25906;DHT22;13713;52.552;13.204;2022-07-23T04:12:29;25.70;54.50
25906;DHT22;13713;52.552;13.204;2022-07-23T04:14:55;25.70;54.50
25906;DHT22;13713;52.552;13.204;2022-07-23T04:17:21;25.60;55.00
25906;DHT22;13713;52.552;13.204;2022-07-23T04:19:47;25.60;54.40
25906;DHT22;13713;52.552;13.204;2022-07-23T04:22:17;25.60;54.30
25906;DHT22;13713;52.552;13.204;2022-07-23T04:24:43;25.60;54.20
25906;DHT22;13713;52.552;13.204;2022-07-23T04:27:09;25.50;54.10
25906;DHT22;13713;52.552;13.204;2022-07-23T04:29:35;25.60;54.10
25906;DHT22;13713;52.552;13.204;2022-07-23T04:32:01;25.60;54.10
25906;DHT22;13713;52.552;13.204;2022-07-23T04:34:27;25.60;54.10
25906;DHT22;13713;52.552;13.204;2022-07-23T04:36:53;25.60;54.10
25906;DHT22;13713;52.552;13.204;2022-07-23T04:39:19;25.70;54.20
25906;DHT22;13713;52.552;13.204;2022-07-23T04:41:45;25.60;54.20
25906;DHT22;13713;52.552;13.204;2022-07-23T04:44:11;25.60;54.20
25906;DHT22;13713;52.552;13.204;2022-07-23T04:46:37;25.60;54.80
25906;DHT22;13713;52.552;13.204;2022-07-23T04:49:05;25.50;54.10
25906;DHT22;13713;52.552;13.204;2022-07-23T04:51:31;25.60;54.20
25906;DHT22;13713;52.552;13.204;2022-07-23T04:53:57;25.60;54.10
25906;DHT22;13713;52.552;13.204;2022-07-23T04:56:22;25.60;54.10
25906;DHT22;13713;52.552;13.204;2022-07-23T04:58:48;25.60;54.20
25906;DHT22;13713;52.552;13.204;2022-07-23T05:01:14;25.60;54.10
25906;DHT22;13713;52.552;13.204;2022-07-23T05:03:39;25.60;54.10
25906;DHT22;13713;52.552;13.204;2022-07-23T05:06:05;25.70;54.20
25906;DHT22;13713;52.552;13.204;2022-07-23T05:08:31;25.60;54.10
25906;DHT22;13713;52.552;13.204;2022-07-23T05:10:58;25.70;54.20
25906;DHT22;13713;52.552;13.204;2022-07-23T05:13:24;25.60;54.10
25906;DHT22;13713;52.552;13.204;2022-07-23T05:15:51;25.50;54.10
25906;DHT22;13713;52.552;13.204;2022-07-23T05:18:17;25.60;54.10
25906;DHT22;13713;52.552;13.204;2022-07-23T05:20:43;25.60;54.10
25906;DHT22;13713;52.552;13.204;2022-07-23T05:23:12;25.60;54.10
25906;DHT22;13713;52.552;13.204;2022-07-23T05:25:39;25.60;54.10
25906;DHT22;13713;52.552;13.204;2022-07-23T05:28:05;25.50;54.00
25906;DHT22;13713;52.552;13.204;2022-07-23T05:30:31;25.60;54.10
25906;DHT22;13713;52.552;13.204;2022-07-23T05:33:00;25.60;54.00
25906;DHT22;13713;52.552;13.204;2022-07-23T05:35:26;25.60;54.00
25906;DHT22;13713;52.552;13.204;2022-07-23T05:38:11;25.60;54.00
25906;DHT22;13713;52.552;13.204;2022-07-23T05:40:38;25.60;54.10
25906;DHT22;13713;52.552;13.204;2022-07-23T05:43:03;25.60;54.00
25906;DHT22;13713;52.552;13.204;2022-07-23T05:45:29;25.60;54.10
25906;DHT22;13713;52.552;13.204;2022-07-23T05:47:55;25.60;54.00
25906;DHT22;13713;52.552;13.204;2022-07-23T05:50:27;25.60;54.00
25906;DHT22;13713;52.552;13.204;2022-07-23T05:52:59;25.60;54.00
25906;DHT22;13713;52.552;13.204;2022-07-23T05:55:46;25.60;54.00
25906;DHT22;13713;52.552;13.204;2022-07-23T05:58:11;25.50;54.00
25906;DHT22;13713;52.552;13.204;2022-07-23T06:00:37;25.60;54.10
25906;DHT22;13713;52.552;13.204;2022-07-23T06:03:03;25.40;54.00
25906;DHT22;13713;52.552;13.204;2022-07-23T06:05:29;25.60;54.70
25906;DHT22;13713;52.552;13.204;2022-07-23T06:07:56;25.60;54.10
25906;DHT22;13713;52.552;13.204;2022-07-23T06:10:23;25.50;54.00
25906;DHT22;13713;52.552;13.204;2022-07-23T06:12:50;25.60;54.00
25906;DHT22;13713;52.552;13.204;2022-07-23T06:15:17;25.60;54.10
25906;DHT22;13713;52.552;13.204;2022-07-23T06:17:42;25.60;54.00
25906;DHT22;13713;52.552;13.204;2022-07-23T06:20:09;25.60;54.00
25906;DHT22;13713;52.552;13.204;2022-07-23T06:22:37;25.50;54.00
25906;DHT22;13713;52.552;13.204;2022-07-23T06:25:03;25.60;54.00
25906;DHT22;13713;52.552;13.204;2022-07-23T06:27:29;25.60;54.10
25906;DHT22;13713;52.552;13.204;2022-07-23T06:29:55;25.50;54.00
25906;DHT22;13713;52.552;13.204;2022-07-23T06:32:20;25.60;54.10
25906;DHT22;13713;52.552;13.204;2022-07-23T06:34:46;25.50;54.00
25906;DHT22;13713;52.552;13.204;2022-07-23T06:37:12;25.50;53.90
25906;DHT22;13713;52.552;13.204;2022-07-23T06:39:37;25.50;53.90
25906;DHT22;13713;52.552;13.204;2022-07-23T06:42:03;25.50;53.90
25906;DHT22;13713;52.552;13.204;2022-07-23T06:44:37;25.50;53.90
25906;DHT22;13713;52.552;13.204;2022-07-23T06:47:04;25.50;53.90
25906;DHT22;13713;52.552;13.204;2022-07-23T06:49:30;25.50;53.90
25906;DHT22;13713;52.552;13.204;2022-07-23T06:51:57;25.50;53.90
25906;DHT22;13713;52.552;13.204;2022-07-23T06:54:22;25.50;53.90
25906;DHT22;13713;52.552;13.204;2022-07-23T06:56:48;25.50;53.90
25906;DHT22;13713;52.552;13.204;2022-07-23T06:59:14;25.50;53.90
25906;DHT22;13713;52.552;13.204;2022-07-23T07:01:41;25.50;53.90
25906;DHT22;13713;52.552;13.204;2022-07-23T07:04:07;25.50;53.90
25906;DHT22;13713;52.552;13.204;2022-07-23T07:06:33;25.50;53.90
25906;DHT22;13713;52.552;13.204;2022-07-23T07:08:58;25.50;53.90
25906;DHT22;13713;52.552;13.204;2022-07-23T07:11:24;25.50;53.80
25906;DHT22;13713;52.552;13.204;2022-07-23T07:13:51;25.50;53.90
25906;DHT22;13713;52.552;13.204;2022-07-23T07:16:16;25.50;53.90
25906;DHT22;13713;52.552;13.204;2022-07-23T07:18:42;25.50;53.90
25906;DHT22;13713;52.552;13.204;2022-07-23T07:21:08;25.50;53.90
25906;DHT22;13713;52.552;13.204;2022-07-23T07:23:33;25.50;53.90
25906;DHT22;13713;52.552;13.204;2022-07-23T07:25:59;25.50;53.90
25906;DHT22;13713;52.552;13.204;2022-07-23T07:28:25;25.50;53.90
25906;DHT22;13713;52.552;13.204;2022-07-23T07:30:50;25.50;53.90
25906;DHT22;13713;52.552;13.204;2022-07-23T07:33:16;25.50;53.90
25906;DHT22;13713;52.552;13.204;2022-07-23T07:35:41;25.50;53.90
25906;DHT22;13713;52.552;13.204;2022-07-23T07:38:07;25.50;53.90
25906;DHT22;13713;52.552;13.204;2022-07-23T07:40:33;25.50;54.50
25906;DHT22;13713;52.552;13.204;2022-07-23T07:42:58;25.50;53.90
25906;DHT22;13713;52.552;13.204;2022-07-23T07:45:24;25.50;53.90
25906;DHT22;13713;52.552;13.204;2022-07-23T07:47:51;25.50;53.90
25906;DHT22;13713;52.552;13.204;2022-07-23T07:50:19;25.50;53.90
25906;DHT22;13713;52.552;13.204;2022-07-23T07:52:44;25.50;53.90
25906;DHT22;13713;52.552;13.204;2022-07-23T07:55:10;25.50;53.90
25906;DHT22;13713;52.552;13.204;2022-07-23T07:57:37;25.50;53.90
25906;DHT22;13713;52.552;13.204;2022-07-23T08:00:04;25.50;53.90
25906;DHT22;13713;52.552;13.204;2022-07-23T08:02:49;25.50;54.00
25906;DHT22;13713;52.552;13.204;2022-07-23T08:05:21;25.50;54.00
25906;DHT22;13713;52.552;13.204;2022-07-23T08:07:48;25.50;54.00
25906;DHT22;13713;52.552;13.204;2022-07-23T08:10:13;25.60;54.30
25906;DHT22;13713;52.552;13.204;2022-07-23T08:12:40;25.50;54.00
25906;DHT22;13713;52.552;13.204;2022-07-23T08:15:07;25.60;54.10
25906;DHT22;13713;52.552;13.204;2022-07-23T08:17:33;25.60;54.10
25906;DHT22;13713;52.552;13.204;2022-07-23T08:19:58;25.60;54.10
25906;DHT22;13713;52.552;13.204;2022-07-23T08:22:24;25.50;54.00
25906;DHT22;13713;52.552;13.204;2022-07-23T08:24:49;25.60;54.10
25906;DHT22;13713;52.552;13.204;2022-07-23T08:27:15;25.60;54.10
25906;DHT22;13713;52.552;13.204;2022-07-23T08:29:40;25.60;54.00
25906;DHT22;13713;52.552;13.204;2022-07-23T08:32:06;25.60;54.10
25906;DHT22;13713;52.552;13.204;2022-07-23T08:34:32;25.60;54.00
25906;DHT22;13713;52.552;13.204;2022-07-23T08:36:57;25.60;54.00
25906;DHT22;13713;52.552;13.204;2022-07-23T08:39:23;25.60;54.00
25906;DHT22;13713;52.552;13.204;2022-07-23T08:41:49;25.60;54.00
25906;DHT22;13713;52.552;13.204;2022-07-23T08:44:16;25.60;54.00
25906;DHT22;13713;52.552;13.204;2022-07-23T08:46:43;25.60;54.00
25906;DHT22;13713;52.552;13.204;2022-07-23T08:49:09;25.60;54.00
25906;DHT22;13713;52.552;13.204;2022-07-23T08:51:35;25.60;54.00
25906;DHT22;13713;52.552;13.204;2022-07-23T08:54:01;25.60;54.00
25906;DHT22;13713;52.552;13.204;2022-07-23T08:56:27;25.60;54.00
25906;DHT22;13713;52.552;13.204;2022-07-23T08:58:54;25.60;54.00
25906;DHT22;13713;52.552;13.204;2022-07-23T09:01:20;25.70;54.70
25906;DHT22;13713;52.552;13.204;2022-07-23T09:03:45;25.60;54.00
25906;DHT22;13713;52.552;13.204;2022-07-23T09:06:11;25.60;54.00
25906;DHT22;13713;52.552;13.204;2022-07-23T09:08:38;25.70;54.00
25906;DHT22;13713;52.552;13.204;2022-07-23T09:11:06;25.60;54.00
25906;DHT22;13713;52.552;13.204;2022-07-23T09:13:39;25.60;54.00
25906;DHT22;13713;52.552;13.204;2022-07-23T09:16:12;25.70;54.10
25906;DHT22;13713;52.552;13.204;2022-07-23T09:18:46;25.70;54.00
25906;DHT22;13713;52.552;13.204;2022-07-23T09:21:29;25.60;54.00
25906;DHT22;13713;52.552;13.204;2022-07-23T09:24:09;25.60;53.90
25906;DHT22;13713;52.552;13.204;2022-07-23T09:26:37;25.70;54.00
25906;DHT22;13713;52.552;13.204;2022-07-23T09:29:19;25.70;54.00
25906;DHT22;13713;52.552;13.204;2022-07-23T09:31:57;25.70;54.00
25906;DHT22;13713;52.552;13.204;2022-07-23T09:34:31;25.70;54.00
25906;DHT22;13713;52.552;13.204;2022-07-23T09:37:15;25.70;54.00
25906;DHT22;13713;52.552;13.204;2022-07-23T09:39:42;25.70;54.00
25906;DHT22;13713;52.552;13.204;2022-07-23T09:42:17;25.70;53.90
25906;DHT22;13713;52.552;13.204;2022-07-23T09:44:46;25.70;54.00
25906;DHT22;13713;52.552;13.204;2022-07-23T09:47:12;25.70;53.90
25906;DHT22;13713;52.552;13.204;2022-07-23T09:49:38;25.70;53.90
25906;DHT22;13713;52.552;13.204;2022-07-23T09:52:04;25.70;53.90
25906;DHT22;13713;52.552;13.204;2022-07-23T09:54:31;25.70;54.00
25906;DHT22;13713;52.552;13.204;2022-07-23T09:57:01;25.70;53.90
25906;DHT22;13713;52.552;13.204;2022-07-23T09:59:32;25.70;53.90
25906;DHT22;13713;52.552;13.204;2022-07-23T10:01:59;25.70;53.90
25906;DHT22;13713;52.552;13.204;2022-07-23T10:04:27;25.70;53.90
25906;DHT22;13713;52.552;13.204;2022-07-23T10:07:04;25.80;54.00
25906;DHT22;13713;52.552;13.204;2022-07-23T10:09:49;25.80;54.00
25906;DHT22;13713;52.552;13.204;2022-07-23T10:12:36;25.80;54.00
25906;DHT22;13713;52.552;13.204;2022-07-23T10:15:17;25.70;53.90
25906;DHT22;13713;52.552;13.204;2022-07-23T10:17:43;25.80;54.00
25906;DHT22;13713;52.552;13.204;2022-07-23T10:20:09;25.70;53.90
25906;DHT22;13713;52.552;13.204;2022-07-23T10:22:38;25.80;54.00
25906;DHT22;13713;52.552;13.204;2022-07-23T10:30:36;25.70;53.90
25906;DHT22;13713;52.552;13.204;2022-07-23T10:38:51;25.80;54.00
25906;DHT22;13713;52.552;13.204;2022-07-23T10:41:31;25.80;53.90
25906;DHT22;13713;52.552;13.204;2022-07-23T10:44:18;25.80;53.90
25906;DHT22;13713;52.552;13.204;2022-07-23T10:47:04;25.80;53.90
25906;DHT22;13713;52.552;13.204;2022-07-23T10:50:22;25.80;53.90
25906;DHT22;13713;52.552;13.204;2022-07-23T10:53:17;25.80;53.90
25906;DHT22;13713;52.552;13.204;2022-07-23T10:55:51;25.80;53.90
25906;DHT22;13713;52.552;13.204;2022-07-23T10:58:22;25.80;53.90
25906;DHT22;13713;52.552;13.204;2022-07-23T11:00:49;25.80;53.90
25906;DHT22;13713;52.552;13.204;2022-07-23T11:03:31;25.80;53.90
25906;DHT22;13713;52.552;13.204;2022-07-23T11:05:58;25.80;53.90
25906;DHT22;13713;52.552;13.204;2022-07-23T11:08:23;25.80;53.90
25906;DHT22;13713;52.552;13.204;2022-07-23T11:11:09;25.80;53.90
25906;DHT22;13713;52.552;13.204;2022-07-23T11:18:56;25.80;53.90
25906;DHT22;13713;52.552;13.204;2022-07-23T11:21:40;25.80;53.90
25906;DHT22;13713;52.552;13.204;2022-07-23T11:34:45;25.80;53.90
25906;DHT22;13713;52.552;13.204;2022-07-23T11:37:34;25.90;53.90
25906;DHT22;13713;52.552;13.204;2022-07-23T11:40:03;25.80;54.50
25906;DHT22;13713;52.552;13.204;2022-07-23T11:42:29;25.80;53.90
25906;DHT22;13713;52.552;13.204;2022-07-23T11:44:54;25.80;53.90
25906;DHT22;13713;52.552;13.204;2022-07-23T11:47:25;25.80;53.90
25906;DHT22;13713;52.552;13.204;2022-07-23T11:49:55;25.80;53.90
25906;DHT22;13713;52.552;13.204;2022-07-23T11:52:21;25.80;53.90
25906;DHT22;13713;52.552;13.204;2022-07-23T11:54:57;25.80;53.90
25906;DHT22;13713;52.552;13.204;2022-07-23T11:57:37;25.90;54.00
25906;DHT22;13713;52.552;13.204;2022-07-23T12:02:59;25.80;53.90
25906;DHT22;13713;52.552;13.204;2022-07-23T12:05:32;25.90;53.90
25906;DHT22;13713;52.552;13.204;2022-07-23T12:07:58;25.90;54.50
25906;DHT22;13713;52.552;13.204;2022-07-23T12:10:30;25.90;53.90
25906;DHT22;13713;52.552;13.204;2022-07-23T12:13:06;25.80;53.90
25906;DHT22;13713;52.552;13.204;2022-07-23T12:15:35;25.80;53.90
25906;DHT22;13713;52.552;13.204;2022-07-23T12:18:04;25.80;53.90
25906;DHT22;13713;52.552;13.204;2022-07-23T12:20:33;25.80;53.90
25906;DHT22;13713;52.552;13.204;2022-07-23T12:23:02;25.90;54.00
25906;DHT22;13713;52.552;13.204;2022-07-23T12:25:33;25.80;53.90
25906;DHT22;13713;52.552;13.204;2022-07-23T12:28:51;25.80;53.90
25906;DHT22;13713;52.552;13.204;2022-07-23T12:30:51;25.90;54.00
25906;DHT22;13713;52.552;13.204;2022-07-23T12:33:28;25.90;54.00
25906;DHT22;13713;52.552;13.204;2022-07-23T12:35:55;25.80;53.90
25906;DHT22;13713;52.552;13.204;2022-07-23T12:38:23;25.90;54.00
25906;DHT22;13713;52.552;13.204;2022-07-23T12:43:33;25.80;53.90
25906;DHT22;13713;52.552;13.204;2022-07-23T12:46:16;25.90;54.00
25906;DHT22;13713;52.552;13.204;2022-07-23T12:51:23;25.90;54.00
25906;DHT22;13713;52.552;13.204;2022-07-23T12:53:57;25.80;53.90
25906;DHT22;13713;52.552;13.204;2022-07-23T12:56:37;25.90;54.00
25906;DHT22;13713;52.552;13.204;2022-07-23T12:59:05;25.90;54.00
25906;DHT22;13713;52.552;13.204;2022-07-23T13:01:45;25.90;54.00
25906;DHT22;13713;52.552;13.204;2022-07-23T13:04:17;25.90;54.00
25906;DHT22;13713;52.552;13.204;2022-07-23T13:06:48;25.90;54.00
25906;DHT22;13713;52.552;13.204;2022-07-23T13:09:23;25.90;54.00
25906;DHT22;13713;52.552;13.204;2022-07-23T13:11:49;25.90;53.90
25906;DHT22;13713;52.552;13.204;2022-07-23T13:14:17;25.90;54.00
25906;DHT22;13713;52.552;13.204;2022-07-23T13:16:45;25.90;54.00
25906;DHT22;13713;52.552;13.204;2022-07-23T13:19:11;25.90;54.00
25906;DHT22;13713;52.552;13.204;2022-07-23T13:21:37;25.90;54.00
25906;DHT22;13713;52.552;13.204;2022-07-23T13:24:03;25.90;53.90
25906;DHT22;13713;52.552;13.204;2022-07-23T13:26:29;25.90;54.00
25906;DHT22;13713;52.552;13.204;2022-07-23T13:28:54;25.90;53.90
25906;DHT22;13713;52.552;13.204;2022-07-23T13:31:20;25.80;53.90
25906;DHT22;13713;52.552;13.204;2022-07-23T13:33:46;25.90;54.00
25906;DHT22;13713;52.552;13.204;2022-07-23T13:36:12;25.90;54.00
25906;DHT22;13713;52.552;13.204;2022-07-23T13:38:38;25.90;54.00
25906;DHT22;13713;52.552;13.204;2022-07-23T13:41:04;25.90;54.00
25906;DHT22;13713;52.552;13.204;2022-07-23T13:43:30;25.90;54.00
25906;DHT22;13713;52.552;13.204;2022-07-23T13:45:56;25.90;54.00
25906;DHT22;13713;52.552;13.204;2022-07-23T13:48:22;26.00;54.00
25906;DHT22;13713;52.552;13.204;2022-07-23T13:50:49;25.90;53.90
25906;DHT22;13713;52.552;13.204;2022-07-23T13:53:18;25.90;53.90
25906;DHT22;13713;52.552;13.204;2022-07-23T13:55:45;25.90;54.00
25906;DHT22;13713;52.552;13.204;2022-07-23T13:58:11;25.90;54.60
25906;DHT22;13713;52.552;13.204;2022-07-23T14:00:41;25.90;54.00
25906;DHT22;13713;52.552;13.204;2022-07-23T14:03:08;26.00;54.00
25906;DHT22;13713;52.552;13.204;2022-07-23T14:05:33;25.90;54.00
25906;DHT22;13713;52.552;13.204;2022-07-23T14:07:59;25.80;53.90
25906;DHT22;13713;52.552;13.204;2022-07-23T14:10:25;25.90;53.90
25906;DHT22;13713;52.552;13.204;2022-07-23T14:12:51;25.90;54.00
25906;DHT22;13713;52.552;13.204;2022-07-23T14:15:26;25.90;54.00
25906;DHT22;13713;52.552;13.204;2022-07-23T14:17:53;25.90;54.00
25906;DHT22;13713;52.552;13.204;2022-07-23T14:20:19;25.90;54.00
25906;DHT22;13713;52.552;13.204;2022-07-23T14:22:45;25.90;53.90
25906;DHT22;13713;52.552;13.204;2022-07-23T14:25:11;25.90;53.90
25906;DHT22;13713;52.552;13.204;2022-07-23T14:27:37;25.90;54.00
25906;DHT22;13713;52.552;13.204;2022-07-23T14:30:05;25.80;53.90
25906;DHT22;13713;52.552;13.204;2022-07-23T14:32:31;25.90;53.90
25906;DHT22;13713;52.552;13.204;2022-07-23T14:34:57;25.90;54.00
25906;DHT22;13713;52.552;13.204;2022-07-23T14:37:23;25.90;53.90
25906;DHT22;13713;52.552;13.204;2022-07-23T14:39:50;25.90;53.90
25906;DHT22;13713;52.552;13.204;2022-07-23T14:42:16;25.90;53.90
25906;DHT22;13713;52.552;13.204;2022-07-23T14:44:41;26.00;54.00
25906;DHT22;13713;52.552;13.204;2022-07-23T14:47:08;25.90;53.90
25906;DHT22;13713;52.552;13.204;2022-07-23T14:49:34;25.90;53.90
25906;DHT22;13713;52.552;13.204;2022-07-23T14:52:00;25.90;54.00
25906;DHT22;13713;52.552;13.204;2022-07-23T14:54:27;25.90;53.90
25906;DHT22;13713;52.552;13.204;2022-07-23T14:56:54;25.90;53.90
25906;DHT22;13713;52.552;13.204;2022-07-23T14:59:20;25.90;53.90
25906;DHT22;13713;52.552;13.204;2022-07-23T15:01:46;25.90;53.90
25906;DHT22;13713;52.552;13.204;2022-07-23T15:04:12;25.90;53.90
25906;DHT22;13713;52.552;13.204;2022-07-23T15:06:38;25.90;53.90
25906;DHT22;13713;52.552;13.204;2022-07-23T15:09:04;25.90;53.90
25906;DHT22;13713;52.552;13.204;2022-07-23T15:11:31;25.90;54.00
25906;DHT22;13713;52.552;13.204;2022-07-23T15:14:05;25.90;53.90
25906;DHT22;13713;52.552;13.204;2022-07-23T15:16:32;25.90;53.90
25906;DHT22;13713;52.552;13.204;2022-07-23T15:18:58;25.90;53.90
25906;DHT22;13713;52.552;13.204;2022-07-23T15:21:23;25.80;53.80
25906;DHT22;13713;52.552;13.204;2022-07-23T15:23:49;25.90;53.90
25906;DHT22;13713;52.552;13.204;2022-07-23T15:26:15;25.90;53.90
25906;DHT22;13713;52.552;13.204;2022-07-23T15:28:41;25.90;54.00
25906;DHT22;13713;52.552;13.204;2022-07-23T15:31:07;25.90;53.90
25906;DHT22;13713;52.552;13.204;2022-07-23T15:33:33;25.90;53.90
25906;DHT22;13713;52.552;13.204;2022-07-23T15:35:59;25.90;53.90
25906;DHT22;13713;52.552;13.204;2022-07-23T15:38:25;25.90;53.90
25906;DHT22;13713;52.552;13.204;2022-07-23T15:40:53;25.90;53.90
25906;DHT22;13713;52.552;13.204;2022-07-23T15:43:19;25.90;53.90
25906;DHT22;13713;52.552;13.204;2022-07-23T15:45:44;25.90;53.90
25906;DHT22;13713;52.552;13.204;2022-07-23T15:48:10;25.90;53.90
25906;DHT22;13713;52.552;13.204;2022-07-23T15:50:37;25.90;53.90
25906;DHT22;13713;52.552;13.204;2022-07-23T15:53:03;25.90;53.90
25906;DHT22;13713;52.552;13.204;2022-07-23T15:55:28;25.90;53.80
25906;DHT22;13713;52.552;13.204;2022-07-23T15:57:54;25.90;53.60